NCAR-RAP Real-Time Weather Data

Output produced by METARs form (10 April 2020  07:18 UTC)
found at http://weather.rap.ucar.edu/surface/
 
KSUX 100652Z AUTO 03005KT 10SM CLR M02/M08 A3022 RMK AO2 SLP243 T10221078
KSUX 100552Z AUTO 29006KT 10SM CLR M03/M09 A3024 RMK AO2 SLP250 T10331089 10039 21033 400721033 53007
KSUX 100452Z AUTO 28005KT 10SM CLR M03/M09 A3022 RMK AO2 SLP243 T10281089
KSUX 100352Z AUTO 29006KT 10SM CLR M02/M09 A3022 RMK AO2 SLP244 T10221089
KSUX 100252Z AUTO 32009KT 10SM CLR 01/M08 A3021 RMK AO2 SLP240 T00061083 51012
KSUX 100152Z 33011KT 10SM SCT055 01/M09 A3021 RMK AO2 SLP238 T00111089
KSUX 100052Z 32017KT 10SM BKN055 03/M09 A3019 RMK AO2 PK WND 35027/0002 SLP233 T00281094
KSUX 092352Z 33018KT 10SM BKN060 04/M09 A3018 RMK AO2 PK WND 33031/2314 SLP230 60000 T00391089 10067 20033 51017
KSUX 092252Z 34024G31KT 10SM BKN060 04/M09 A3016 RMK AO2 PK WND 34035/2204 SLP224 T00391089
KSUX 092152Z 33021G33KT 10SM SCT050 04/M08 A3015 RMK AO2 PK WND 34040/2058 RAB34E37 SLP219 P0000 T00441083
KSUX 092052Z 34025G35KT 10SM BKN060 06/M09 A3013 RMK AO2 PK WND 33037/2022 SLP211 T00561094 51009
KSUX 091952Z 33019G40KT 10SM BKN055 06/M07 A3012 RMK AO2 PK WND 32040/1944 SLP209 T00561072
KSUX 091852Z 33029G40KT 10SM BLDU FEW039 OVC060 05/M06 A3013 RMK AO2 PK WND 34041/1806 SLP212 T00501061
KSUX 091752Z 33032G41KT 10SM BLDU BKN055 06/M09 A3010 RMK AO2 PK WND 33046/1718 SLP201 60000 T00611094 10072 20028 51031
KSUX 091659Z 34028G42KT 10SM BLDU BKN055 06/M07 A3009 RMK AO2 PK WND 33042/1653 T00561067
KSUX 091655Z 33034G42KT 1 1/2SM HZ BLDU FEW020 BKN055 07/M07 A3009 RMK AO2 PK WND 33042/1653 VIS 3/4V4 T00671067
KSUX 091652Z 33027G41KT 10SM BLDU BKN050 06/M07 A3008 RMK AO2 PK WND 33044/1636 SLP192 T00611072
KSUX 091552Z 32027G42KT 10SM FEW014 SCT055 07/M07 A3005 RMK AO2 PK WND 33042/1546 SLP184 T00721067
KSUX 091452Z 32022G38KT 10SM FEW002 07/M06 A3001 RMK AO2 PK WND 32038/1444 RAB11E47 SLP167 P0000 60000 T00671056 55002
KSUX 091352Z 30016G24KT 10SM CLR 06/M05 A3000 RMK AO2 SLP165 T00611050
KSUX 091252Z 30011KT 10SM CLR 04/M05 A3001 RMK AO2 SLP168 T00391050
KSUX 091152Z 29010KT 10SM CLR 03/M06 A3001 RMK AO2 SLP169 T00281056 10028 20006 58008
KSUX 091052Z 31010KT 10SM CLR 02/M05 A3002 RMK AO2 SLP172 T00221050
KSUX 090952Z AUTO 30007KT 10SM CLR 01/M06 A3004 RMK AO2 SLP176 T00061056
KSUX 090852Z AUTO 29008KT 10SM CLR 01/M05 A3004 RMK AO2 SLP177 T00111050 55002